Time;durP1;ratioP1;P1;durP2;ratioP2;P2;SDS_P1;SDS_P2;PMS_P1;PMS_P2;Temp;Humidity;BMP_temperature;BMP_pressure;BME280_temperature;BME280_humidity;BME280_pressure;Samples;Min_cycle;Max_cycle;Signal;HPM_P1;HPM_P2
2023/09/05 00:02:08;;;;;;;2.27;2.07;;;22.00;65.80;;;;;;5070032;28;20437;-49
2023/09/05 00:04:38;;;;;;;2.33;2.00;;;22.00;66.00;;;;;;5076657;28;20819;-50
2023/09/05 00:07:07;;;;;;;2.20;2.00;;;22.00;66.30;;;;;;5086010;28;21011;-49
2023/09/05 00:09:36;;;;;;;2.27;2.03;;;22.00;66.40;;;;;;5096048;28;20973;-50
2023/09/05 00:12:05;;;;;;;2.30;1.87;;;22.00;66.30;;;;;;5084605;28;20436;-50
2023/09/05 00:14:33;;;;;;;2.90;2.13;;;22.00;66.20;;;;;;5095335;28;20969;-50
2023/09/05 00:17:02;;;;;;;2.00;1.70;;;22.00;66.30;;;;;;5067236;28;20461;-51
2023/09/05 00:19:30;;;;;;;2.70;2.50;;;22.00;66.40;;;;;;5096853;28;20456;-50
2023/09/05 00:22:00;;;;;;;2.80;2.43;;;22.00;65.70;;;;;;5085056;28;20437;-51
2023/09/05 00:24:32;;;;;;;2.43;1.97;;;22.00;65.70;;;;;;5085376;28;20457;-51
2023/09/05 00:27:01;;;;;;;3.73;2.27;;;22.00;65.70;;;;;;5082093;28;20453;-51
2023/09/05 00:29:31;;;;;;;2.70;2.27;;;22.00;66.30;;;;;;5084389;28;20461;-49
2023/09/05 00:32:00;;;;;;;2.47;2.27;;;22.00;65.70;;;;;;5077249;28;20444;-52
2023/09/05 00:34:30;;;;;;;3.20;2.50;;;22.00;66.10;;;;;;5066322;28;20444;-50
2023/09/05 00:37:01;;;;;;;3.33;2.00;;;22.00;66.20;;;;;;5090969;28;20424;-51
2023/09/05 00:39:30;;;;;;;2.97;2.33;;;22.00;65.70;;;;;;5099497;28;20487;-51
2023/09/05 00:42:00;;;;;;;2.13;1.93;;;22.00;65.80;;;;;;5059089;28;20422;-51
2023/09/05 00:44:30;;;;;;;3.00;2.70;;;22.00;66.00;;;;;;5080089;28;20465;-51
2023/09/05 00:47:00;;;;;;;4.90;2.27;;;21.90;65.80;;;;;;5091223;28;21061;-51
2023/09/05 00:49:29;;;;;;;5.00;2.47;;;22.00;65.70;;;;;;5071167;28;20460;-50
2023/09/05 00:52:00;;;;;;;2.53;2.13;;;21.90;65.70;;;;;;5085139;28;20520;-50
2023/09/05 00:54:29;;;;;;;2.20;2.00;;;22.00;65.70;;;;;;5069513;28;20437;-48
2023/09/05 00:56:59;;;;;;;3.57;2.50;;;22.00;65.70;;;;;;5074672;28;20441;-49
2023/09/05 00:59:27;;;;;;;3.00;2.20;;;22.00;65.70;;;;;;5086844;28;20519;-49
2023/09/05 01:01:56;;;;;;;3.70;2.40;;;21.90;65.70;;;;;;5064352;28;20493;-50
2023/09/05 01:04:25;;;;;;;2.17;1.97;;;21.90;65.90;;;;;;5090296;28;20962;-51
2023/09/05 01:07:00;;;;;;;2.07;1.87;;;21.90;65.70;;;;;;5074891;28;20978;-50
2023/09/05 01:09:41;;;;;;;3.73;2.07;;;21.90;65.70;;;;;;5084537;28;20472;-50
2023/09/05 01:12:10;;;;;;;2.13;1.90;;;21.90;65.70;;;;;;5079863;28;20472;-49
2023/09/05 01:14:39;;;;;;;2.17;1.90;;;21.90;65.70;;;;;;5067097;28;20444;-50
2023/09/05 01:17:08;;;;;;;2.50;2.10;;;21.90;65.70;;;;;;5057456;28;20477;-50
2023/09/05 01:19:40;;;;;;;2.37;2.17;;;21.90;65.90;;;;;;5082150;28;20457;-51
2023/09/05 01:22:18;;;;;;;3.27;2.40;;;21.90;65.70;;;;;;5085473;28;20461;-49
2023/09/05 01:24:49;;;;;;;2.40;2.20;;;21.90;66.30;;;;;;5087373;28;20523;-50
2023/09/05 01:27:37;;;;;;;2.00;1.77;;;21.90;66.90;;;;;;5069853;28;20546;-51
2023/09/05 01:30:25;;;;;;;2.00;1.63;;;21.90;65.70;;;;;;5090908;28;20807;-50
2023/09/05 01:32:54;;;;;;;2.87;2.10;;;21.90;65.70;;;;;;5071800;28;20488;-51
2023/09/05 01:35:22;;;;;;;2.20;2.00;;;21.90;65.80;;;;;;5089808;28;20440;-50
2023/09/05 01:37:51;;;;;;;2.23;2.03;;;21.90;65.70;;;;;;5073176;28;20523;-50
2023/09/05 01:40:22;;;;;;;2.33;2.13;;;21.90;66.10;;;;;;5073289;28;20949;-50
2023/09/05 01:42:50;;;;;;;2.60;2.23;;;21.90;65.70;;;;;;5095441;28;20480;-49
2023/09/05 01:45:19;;;;;;;2.33;2.13;;;21.90;65.70;;;;;;5073554;28;20463;-49
2023/09/05 01:47:47;;;;;;;2.00;1.80;;;21.90;65.70;;;;;;5077264;28;20477;-50
2023/09/05 01:50:16;;;;;;;3.00;2.17;;;21.90;65.70;;;;;;5060574;28;20450;-51
2023/09/05 01:52:45;;;;;;;1.90;1.70;;;21.90;65.70;;;;;;5077842;28;20480;-49
2023/09/05 01:55:13;;;;;;;3.23;2.33;;;21.80;65.60;;;;;;5085736;28;20480;-49
2023/09/05 01:57:43;;;;;;;2.10;1.80;;;21.90;65.70;;;;;;5069565;28;20488;-51
2023/09/05 02:00:13;;;;;;;2.37;2.17;;;21.80;65.70;;;;;;5081668;28;20444;-51
2023/09/05 02:02:42;;;;;;;2.10;1.90;;;21.80;65.60;;;;;;5075946;28;20465;-50
2023/09/05 02:05:10;;;;;;;2.00;1.90;;;21.80;65.60;;;;;;5066368;28;20460;-52
2023/09/05 02:07:39;;;;;;;3.23;1.73;;;21.80;65.60;;;;;;5074703;28;20463;-50
2023/09/05 02:10:08;;;;;;;1.70;1.47;;;21.80;65.60;;;;;;5083221;28;20431;-52
2023/09/05 02:12:37;;;;;;;3.00;2.10;;;21.80;65.60;;;;;;5093894;28;20901;-51
2023/09/05 02:15:09;;;;;;;2.07;1.80;;;21.80;65.60;;;;;;5085227;28;20441;-51
2023/09/05 02:17:38;;;;;;;2.53;2.33;;;21.80;65.70;;;;;;5067606;28;20619;-49
2023/09/05 02:20:08;;;;;;;2.60;2.37;;;21.90;65.70;;;;;;5089669;28;20531;-51
2023/09/05 02:22:36;;;;;;;2.83;2.10;;;21.80;65.60;;;;;;5089105;28;20974;-50
2023/09/05 02:25:06;;;;;;;2.50;2.20;;;21.80;65.70;;;;;;5075957;28;20435;-51
2023/09/05 02:27:34;;;;;;;3.63;2.13;;;21.80;65.70;;;;;;5095023;28;20875;-50
2023/09/05 02:30:04;;;;;;;3.40;3.10;;;21.80;65.60;;;;;;5088948;28;20841;-50
2023/09/05 02:32:34;;;;;;;2.40;1.90;;;21.80;65.60;;;;;;5074894;28;20561;-50
2023/09/05 02:35:06;;;;;;;2.20;2.00;;;21.80;65.60;;;;;;5085019;28;20943;-50
2023/09/05 02:37:35;;;;;;;2.23;2.03;;;21.80;65.60;;;;;;5080824;28;20545;-51
2023/09/05 02:40:07;;;;;;;2.70;2.10;;;21.80;65.60;;;;;;5073645;28;20445;-49
2023/09/05 02:42:36;;;;;;;2.53;2.33;;;21.80;65.70;;;;;;5092675;28;20467;-49
2023/09/05 02:45:05;;;;;;;2.20;1.80;;;21.80;65.70;;;;;;5080032;28;20433;-50
2023/09/05 02:47:35;;;;;;;2.27;2.07;;;21.80;65.60;;;;;;5089194;28;20973;-50
2023/09/05 02:50:04;;;;;;;2.37;2.17;;;21.80;65.60;;;;;;5084905;28;20513;-50
2023/09/05 02:52:33;;;;;;;3.67;2.47;;;21.80;65.60;;;;;;5066975;28;20876;-49
2023/09/05 02:55:15;;;;;;;2.30;1.73;;;21.80;65.60;;;;;;5094251;28;20440;-50
2023/09/05 02:57:43;;;;;;;2.53;2.07;;;21.80;65.60;;;;;;5077472;28;20472;-49
2023/09/05 03:00:13;;;;;;;3.40;2.53;;;21.80;65.60;;;;;;5070943;28;20469;-50
2023/09/05 03:02:43;;;;;;;2.97;2.53;;;21.80;65.60;;;;;;5086091;28;20603;-50
2023/09/05 03:05:13;;;;;;;2.87;2.50;;;21.80;65.60;;;;;;5071536;28;20448;-50
2023/09/05 03:07:42;;;;;;;2.20;2.00;;;21.80;65.60;;;;;;5068739;28;21014;-50
2023/09/05 03:10:11;;;;;;;2.53;1.87;;;21.80;65.70;;;;;;5086084;28;21004;-51
2023/09/05 03:12:40;;;;;;;2.10;1.90;;;21.80;65.60;;;;;;5086069;28;20905;-50
2023/09/05 03:15:09;;;;;;;2.57;2.10;;;21.80;66.20;;;;;;5075665;28;20456;-51
2023/09/05 03:17:39;;;;;;;2.27;2.00;;;21.80;65.60;;;;;;5071681;28;20520;-49
2023/09/05 03:20:11;;;;;;;2.23;1.83;;;21.80;65.60;;;;;;5100464;28;20510;-50
2023/09/05 03:22:40;;;;;;;2.60;2.40;;;21.80;65.60;;;;;;5068615;28;20987;-50
2023/09/05 03:25:10;;;;;;;2.30;1.80;;;21.80;65.60;;;;;;5075663;28;20470;-50
2023/09/05 03:27:39;;;;;;;2.70;2.00;;;21.80;65.60;;;;;;5067874;28;20688;-49
2023/09/05 03:30:09;;;;;;;2.40;2.20;;;21.80;65.60;;;;;;5073883;28;20507;-50
2023/09/05 03:32:40;;;;;;;2.17;1.97;;;21.80;65.60;;;;;;5091259;28;21176;-49
2023/09/05 03:35:11;;;;;;;2.20;2.00;;;21.80;65.60;;;;;;5072222;28;20435;-52
2023/09/05 03:37:39;;;;;;;2.23;1.90;;;21.80;65.70;;;;;;5078091;28;20469;-51
2023/09/05 03:40:10;;;;;;;2.77;2.47;;;21.80;66.20;;;;;;5073306;28;20436;-49
2023/09/05 03:42:40;;;;;;;1.80;1.50;;;21.80;65.60;;;;;;5086652;28;20886;-50
2023/09/05 03:45:10;;;;;;;2.57;2.07;;;21.80;65.90;;;;;;5072009;28;20429;-51
2023/09/05 03:47:39;;;;;;;2.63;1.90;;;21.80;65.70;;;;;;5054528;28;20982;-49
2023/09/05 03:50:27;;;;;;;3.47;2.70;;;21.80;65.60;;;;;;5070960;28;20723;-51
2023/09/05 03:52:56;;;;;;;2.80;2.60;;;21.80;66.00;;;;;;5079215;28;20465;-50
2023/09/05 03:55:24;;;;;;;2.30;2.10;;;21.80;66.10;;;;;;5074102;28;20908;-50
2023/09/05 03:57:53;;;;;;;3.13;2.07;;;21.80;65.90;;;;;;5088759;28;20473;-50
2023/09/05 04:00:22;;;;;;;2.40;2.20;;;21.80;66.10;;;;;;5070674;28;20500;-52
2023/09/05 04:02:50;;;;;;;2.20;1.93;;;21.80;66.00;;;;;;5084131;28;20509;-50
2023/09/05 04:05:19;;;;;;;2.13;1.93;;;21.80;66.10;;;;;;5075993;28;20841;-50
2023/09/05 04:07:49;;;;;;;2.40;1.93;;;21.80;65.70;;;;;;5076053;28;21050;-50
2023/09/05 04:10:18;;;;;;;2.57;2.03;;;21.80;66.00;;;;;;5075863;28;20975;-50
2023/09/05 04:12:47;;;;;;;2.13;1.93;;;21.80;66.10;;;;;;5081579;28;20473;-50
2023/09/05 04:15:20;;;;;;;2.20;2.00;;;21.80;65.80;;;;;;5076528;28;20531;-50
2023/09/05 04:17:50;;;;;;;2.17;1.97;;;21.80;66.00;;;;;;5070573;28;20481;-50
2023/09/05 04:20:19;;;;;;;1.77;1.67;;;21.70;65.90;;;;;;5095265;28;20425;-51
2023/09/05 04:22:49;;;;;;;2.20;2.00;;;21.80;65.80;;;;;;5082374;28;20484;-50
2023/09/05 04:25:19;;;;;;;1.93;1.73;;;21.70;65.90;;;;;;5068446;28;20444;-49
2023/09/05 04:27:48;;;;;;;2.60;2.20;;;21.70;65.80;;;;;;5088640;28;20841;-50
2023/09/05 04:30:18;;;;;;;2.30;2.00;;;21.70;65.90;;;;;;5072511;28;20429;-50
2023/09/05 04:32:46;;;;;;;2.43;2.23;;;21.70;66.00;;;;;;5088729;28;20488;-50
2023/09/05 04:35:17;;;;;;;2.33;2.13;;;21.70;65.90;;;;;;5096489;28;20503;-50
2023/09/05 04:37:46;;;;;;;2.10;1.90;;;21.70;66.20;;;;;;5095098;28;20479;-50
2023/09/05 04:40:16;;;;;;;2.70;2.50;;;21.70;66.20;;;;;;5077483;28;20512;-49
2023/09/05 04:42:44;;;;;;;2.17;1.97;;;21.70;66.00;;;;;;5077103;28;21228;-52
2023/09/05 04:45:13;;;;;;;2.13;1.93;;;21.70;66.00;;;;;;5090239;28;20992;-50
2023/09/05 04:47:41;;;;;;;2.20;2.00;;;21.70;66.00;;;;;;5073400;28;20899;-50
2023/09/05 04:50:10;;;;;;;3.20;2.13;;;21.60;66.20;;;;;;5073688;28;20437;-50
2023/09/05 04:52:38;;;;;;;2.40;2.20;;;21.70;66.00;;;;;;5097028;28;20441;-52
2023/09/05 04:55:08;;;;;;;2.23;2.03;;;21.70;66.10;;;;;;5092641;28;20441;-50
2023/09/05 04:57:38;;;;;;;2.97;2.30;;;21.70;66.20;;;;;;5062447;28;20496;-50
2023/09/05 05:00:08;;;;;;;2.70;2.50;;;21.60;66.10;;;;;;5059706;28;20467;-50
2023/09/05 05:02:36;;;;;;;2.90;2.20;;;21.70;66.10;;;;;;5085947;28;20441;-50
2023/09/05 05:05:06;;;;;;;2.93;2.00;;;21.70;66.10;;;;;;5081158;28;20523;-50
2023/09/05 05:07:34;;;;;;;3.17;2.50;;;21.70;66.10;;;;;;5077758;28;20472;-50
2023/09/05 05:10:03;;;;;;;2.50;1.90;;;21.60;65.90;;;;;;5089574;28;20973;-51
2023/09/05 05:12:32;;;;;;;3.00;2.10;;;21.70;66.00;;;;;;5067907;28;20450;-49
2023/09/05 05:15:01;;;;;;;2.33;2.13;;;21.60;66.00;;;;;;5090363;28;20803;-49
2023/09/05 05:17:30;;;;;;;2.60;2.10;;;21.60;65.80;;;;;;5073042;28;20552;-49
2023/09/05 05:19:59;;;;;;;2.47;2.27;;;21.60;65.60;;;;;;5098279;28;20437;-52
2023/09/05 05:22:27;;;;;;;2.00;1.67;;;21.60;66.00;;;;;;5095814;28;20505;-50
2023/09/05 05:24:56;;;;;;;2.30;1.87;;;21.60;66.10;;;;;;5077180;28;20528;-50
2023/09/05 05:27:25;;;;;;;2.27;1.73;;;21.60;66.10;;;;;;5088286;28;20479;-49
2023/09/05 05:29:54;;;;;;;2.03;1.77;;;21.60;66.30;;;;;;5080981;28;20460;-50
2023/09/05 05:32:24;;;;;;;2.20;2.00;;;21.60;66.10;;;;;;5066616;28;20560;-52
2023/09/05 05:34:53;;;;;;;2.30;1.87;;;21.60;66.00;;;;;;5072776;28;20539;-50
2023/09/05 05:37:21;;;;;;;1.83;1.47;;;21.60;66.00;;;;;;5089460;28;20513;-51
2023/09/05 05:39:50;;;;;;;1.63;1.53;;;21.60;66.30;;;;;;5100565;28;20534;-50
2023/09/05 05:42:19;;;;;;;2.00;1.53;;;21.60;66.20;;;;;;5070731;28;20491;-50
2023/09/05 05:44:48;;;;;;;2.13;1.83;;;21.60;66.30;;;;;;5094388;28;20453;-50
2023/09/05 05:47:16;;;;;;;2.70;2.10;;;21.60;66.20;;;;;;5051856;28;20470;-50
2023/09/05 05:49:46;;;;;;;2.30;2.10;;;21.60;66.50;;;;;;5069525;28;20944;-50
2023/09/05 05:52:15;;;;;;;2.90;1.90;;;21.60;66.50;;;;;;5065701;28;20568;-49
2023/09/05 05:54:43;;;;;;;2.33;2.13;;;21.60;66.40;;;;;;5073193;28;20457;-50
2023/09/05 05:57:12;;;;;;;2.20;2.00;;;21.60;66.40;;;;;;5079607;28;20493;-49
2023/09/05 05:59:41;;;;;;;2.70;2.50;;;21.60;66.00;;;;;;5094881;28;20806;-50
2023/09/05 06:02:09;;;;;;;2.63;2.03;;;21.60;66.70;;;;;;5091470;28;20443;-51
2023/09/05 06:04:38;;;;;;;2.10;1.90;;;21.60;66.40;;;;;;5099469;28;20469;-51
2023/09/05 06:07:08;;;;;;;3.37;2.03;;;21.50;66.40;;;;;;5078237;28;20476;-50
2023/09/05 06:09:36;;;;;;;2.40;2.20;;;21.50;66.50;;;;;;5073307;28;20488;-51
2023/09/05 06:12:06;;;;;;;2.10;1.90;;;21.50;66.70;;;;;;5067387;28;20441;-50
2023/09/05 06:14:34;;;;;;;2.83;1.87;;;21.50;66.60;;;;;;5091674;28;20812;-51
2023/09/05 06:17:03;;;;;;;2.30;2.10;;;21.50;66.80;;;;;;5076234;28;20482;-50
2023/09/05 06:19:32;;;;;;;2.30;1.70;;;21.50;66.50;;;;;;5104393;28;20828;-51
2023/09/05 06:22:00;;;;;;;2.60;2.17;;;21.50;66.70;;;;;;5070334;28;20796;-51
2023/09/05 06:24:30;;;;;;;2.27;2.07;;;21.60;66.80;;;;;;5088722;28;20934;-50
2023/09/05 06:26:58;;;;;;;2.30;2.07;;;21.60;66.80;;;;;;5093714;28;20453;-50
2023/09/05 06:29:27;;;;;;;3.60;2.63;;;21.50;66.80;;;;;;5076148;28;20468;-50
2023/09/05 06:31:55;;;;;;;2.27;2.00;;;21.50;66.90;;;;;;5090296;28;20509;-52
2023/09/05 06:34:24;;;;;;;2.90;1.90;;;21.50;66.90;;;;;;5090186;28;20452;-50
2023/09/05 06:36:53;;;;;;;2.23;2.03;;;21.50;66.80;;;;;;5077201;28;20486;-50
2023/09/05 06:39:21;;;;;;;2.10;1.90;;;21.50;66.80;;;;;;5075427;28;20478;-50
2023/09/05 06:41:51;;;;;;;2.00;1.80;;;21.50;66.80;;;;;;5078989;28;20498;-50
2023/09/05 06:44:30;;;;;;;2.10;1.60;;;21.50;66.90;;;;;;5071644;28;20497;-51
2023/09/05 06:46:58;;;;;;;2.23;2.00;;;21.50;67.00;;;;;;5093926;28;20466;-52
2023/09/05 06:49:27;;;;;;;2.70;2.03;;;21.50;67.10;;;;;;5070382;28;20481;-51
2023/09/05 06:51:55;;;;;;;2.17;1.97;;;21.50;67.10;;;;;;5070464;28;20465;-50
2023/09/05 06:54:24;;;;;;;3.30;1.87;;;21.50;67.10;;;;;;5093533;28;20470;-50
2023/09/05 06:56:53;;;;;;;1.90;1.47;;;21.50;67.30;;;;;;5054660;28;20446;-49
2023/09/05 06:59:22;;;;;;;2.50;2.30;;;21.50;67.30;;;;;;5074593;28;20483;-51
2023/09/05 07:01:50;;;;;;;2.53;2.33;;;21.50;67.30;;;;;;5090988;28;20457;-50
2023/09/05 07:04:19;;;;;;;2.83;1.60;;;21.50;67.30;;;;;;5091943;28;20496;-51
2023/09/05 07:06:48;;;;;;;2.60;2.10;;;21.50;67.30;;;;;;5088840;28;20445;-50
2023/09/05 07:09:17;;;;;;;2.40;2.20;;;21.50;67.30;;;;;;5073185;28;20510;-51
2023/09/05 07:11:46;;;;;;;5.03;2.50;;;21.50;67.30;;;;;;5069639;28;20477;-50
2023/09/05 07:14:16;;;;;;;2.70;2.40;;;21.50;67.40;;;;;;5084530;28;20951;-50
2023/09/05 07:16:44;;;;;;;2.00;1.80;;;21.60;67.50;;;;;;5099806;28;20437;-50
2023/09/05 07:19:13;;;;;;;2.27;1.87;;;21.60;67.60;;;;;;5081571;28;20475;-49
2023/09/05 07:21:42;;;;;;;2.10;1.87;;;21.60;67.50;;;;;;5094918;28;20434;-50
2023/09/05 07:24:13;;;;;;;4.23;1.73;;;21.60;67.50;;;;;;5080290;28;20744;-51
2023/09/05 07:26:42;;;;;;;2.27;2.03;;;21.60;67.60;;;;;;5052606;28;20488;-51
2023/09/05 07:29:12;;;;;;;2.60;1.80;;;21.60;67.60;;;;;;5070607;28;20480;-52
2023/09/05 07:31:44;;;;;;;2.40;2.20;;;21.60;67.70;;;;;;5090107;28;21145;-51
2023/09/05 07:34:12;;;;;;;2.50;2.20;;;21.60;67.70;;;;;;5075264;28;20811;-48
2023/09/05 07:36:41;;;;;;;11.13;2.17;;;21.60;67.60;;;;;;5080963;28;20442;-51
2023/09/05 07:39:11;;;;;;;2.00;1.80;;;21.60;67.60;;;;;;5094279;28;20450;-50
2023/09/05 07:41:41;;;;;;;2.20;1.90;;;21.70;67.50;;;;;;5085493;28;20510;-50
2023/09/05 07:44:10;;;;;;;2.13;1.93;;;21.70;67.50;;;;;;5069809;28;20491;-50
2023/09/05 07:46:39;;;;;;;2.60;2.40;;;21.60;67.30;;;;;;5075467;28;20435;-51
2023/09/05 07:49:09;;;;;;;2.60;2.13;;;21.60;67.40;;;;;;5088036;28;20560;-51
2023/09/05 07:51:37;;;;;;;2.30;1.77;;;21.60;67.30;;;;;;5086164;28;21004;-50
2023/09/05 07:54:07;;;;;;;4.13;2.40;;;21.60;67.30;;;;;;5077209;28;20429;-51
2023/09/05 07:56:36;;;;;;;3.87;2.00;;;21.70;67.20;;;;;;5083166;28;20540;-51
2023/09/05 07:59:05;;;;;;;3.60;1.93;;;21.70;67.00;;;;;;5079181;28;20448;-50
2023/09/05 08:01:34;;;;;;;3.07;1.87;;;21.70;67.20;;;;;;5074246;28;20456;-51
2023/09/05 08:04:05;;;;;;;4.93;2.27;;;21.70;67.30;;;;;;5075190;28;20452;-50
2023/09/05 08:06:37;;;;;;;3.03;1.93;;;21.70;67.30;;;;;;5075422;28;20441;-50
2023/09/05 08:09:05;;;;;;;2.47;1.90;;;21.70;67.50;;;;;;5094931;28;20471;-50
2023/09/05 08:11:34;;;;;;;2.83;2.10;;;21.60;67.60;;;;;;5070665;28;20441;-51
2023/09/05 08:14:02;;;;;;;4.03;2.40;;;21.60;67.50;;;;;;5085951;28;20517;-50
2023/09/05 08:16:31;;;;;;;3.47;1.93;;;21.60;67.60;;;;;;5090398;28;20862;-50
2023/09/05 08:18:59;;;;;;;2.30;2.07;;;21.60;67.80;;;;;;5088495;28;20841;-50
2023/09/05 08:21:28;;;;;;;2.27;1.90;;;21.60;67.80;;;;;;5080004;28;20441;-51
2023/09/05 08:23:58;;;;;;;2.37;1.80;;;21.60;67.80;;;;;;5083896;28;20479;-51
2023/09/05 08:26:27;;;;;;;2.10;1.90;;;21.60;67.80;;;;;;5079848;28;20539;-51
2023/09/05 08:28:55;;;;;;;2.00;1.80;;;21.60;69.10;;;;;;5088338;28;20842;-50
2023/09/05 08:31:24;;;;;;;2.10;1.90;;;21.60;68.00;;;;;;5078800;28;20850;-49
2023/09/05 08:33:53;;;;;;;2.17;1.97;;;21.60;67.90;;;;;;5049375;28;20470;-50
2023/09/05 08:36:21;;;;;;;1.73;1.63;;;21.60;68.00;;;;;;5088787;28;20433;-50
2023/09/05 08:38:50;;;;;;;2.00;1.80;;;21.60;68.10;;;;;;5098809;28;20856;-51
2023/09/05 08:41:20;;;;;;;1.67;1.57;;;21.60;68.00;;;;;;5089719;28;20437;-51
2023/09/05 08:43:49;;;;;;;5.43;2.23;;;21.60;68.10;;;;;;5098563;28;20496;-51
2023/09/05 08:46:20;;;;;;;2.40;1.73;;;21.60;68.20;;;;;;5095563;28;20435;-50
2023/09/05 08:48:49;;;;;;;2.10;1.90;;;21.60;68.20;;;;;;5074506;28;20469;-51
2023/09/05 08:51:28;;;;;;;3.10;1.70;;;21.60;68.10;;;;;;5072480;28;20429;-50
2023/09/05 08:54:03;;;;;;;2.60;2.20;;;21.60;68.20;;;;;;5080535;28;20466;-49
2023/09/05 08:56:34;;;;;;;3.67;1.80;;;21.60;68.10;;;;;;5074999;28;20453;-52
2023/09/05 08:59:03;;;;;;;3.30;2.43;;;21.60;68.20;;;;;;5074137;28;20449;-51
2023/09/05 09:01:33;;;;;;;5.00;2.10;;;21.60;68.10;;;;;;5077020;28;20424;-50
2023/09/05 09:04:05;;;;;;;2.30;1.97;;;21.60;68.20;;;;;;5085429;28;20444;-50
2023/09/05 09:06:36;;;;;;;4.13;1.63;;;21.60;68.10;;;;;;5096455;28;20421;-52
2023/09/05 09:09:05;;;;;;;2.20;2.00;;;21.70;68.20;;;;;;5078803;28;20483;-51
2023/09/05 09:11:37;;;;;;;2.27;2.07;;;21.70;68.20;;;;;;5073822;28;20875;-52
2023/09/05 09:14:07;;;;;;;2.27;2.00;;;21.70;68.30;;;;;;5091537;28;20524;-52
2023/09/05 09:16:45;;;;;;;2.57;2.37;;;21.70;68.40;;;;;;5095264;28;20957;-50
2023/09/05 09:19:15;;;;;;;2.80;1.80;;;21.70;68.30;;;;;;5074691;28;20471;-50
2023/09/05 09:21:44;;;;;;;2.70;2.10;;;21.70;68.30;;;;;;5095864;28;20426;-50
2023/09/05 09:24:16;;;;;;;2.10;1.90;;;21.70;68.40;;;;;;5082085;28;20475;-52
2023/09/05 09:26:47;;;;;;;4.17;2.17;;;21.70;68.30;;;;;;5062970;28;20434;-49
2023/09/05 09:29:19;;;;;;;6.63;1.97;;;21.70;68.40;;;;;;5085640;28;20560;-50
2023/09/05 09:31:48;;;;;;;1.83;1.63;;;21.70;68.40;;;;;;5092468;28;20520;-50
2023/09/05 09:34:21;;;;;;;2.20;1.77;;;21.60;68.40;;;;;;5069549;28;20439;-50
2023/09/05 09:36:53;;;;;;;2.10;1.80;;;21.70;68.40;;;;;;5076778;28;20477;-51
2023/09/05 09:39:21;;;;;;;2.10;1.90;;;21.70;68.40;;;;;;5088004;28;20491;-52
2023/09/05 09:41:51;;;;;;;2.33;2.10;;;21.70;68.40;;;;;;5093256;28;20468;-50
2023/09/05 09:44:31;;;;;;;2.13;1.93;;;21.70;68.50;;;;;;5074991;28;20512;-52
2023/09/05 09:47:01;;;;;;;2.03;1.87;;;21.70;68.40;;;;;;5097851;28;20927;-48
2023/09/05 09:49:32;;;;;;;2.63;2.40;;;21.70;68.40;;;;;;5091254;28;20457;-49
2023/09/05 09:52:05;;;;;;;3.17;2.17;;;21.70;68.40;;;;;;5077013;28;20513;-51
2023/09/05 09:54:39;;;;;;;3.33;1.90;;;21.70;68.40;;;;;;5098648;28;20452;-49
2023/09/05 09:57:15;;;;;;;1.57;1.40;;;21.70;68.50;;;;;;5081779;28;20867;-50
2023/09/05 09:59:50;;;;;;;2.20;2.00;;;21.70;68.50;;;;;;5073204;28;20772;-50
2023/09/05 10:02:21;;;;;;;2.17;1.90;;;21.70;68.60;;;;;;5086879;28;20480;-50
2023/09/05 10:04:53;;;;;;;2.33;1.70;;;21.70;68.50;;;;;;5082088;28;20490;-50
2023/09/05 10:07:24;;;;;;;3.07;1.93;;;21.70;68.50;;;;;;5097775;28;20469;-49
2023/09/05 10:09:54;;;;;;;2.90;2.10;;;21.70;68.50;;;;;;5065285;28;21002;-50
2023/09/05 10:12:26;;;;;;;2.23;2.03;;;21.70;68.50;;;;;;5091277;28;20433;-49
2023/09/05 10:15:00;;;;;;;1.70;1.50;;;21.70;68.60;;;;;;5072559;28;20528;-49
2023/09/05 10:17:32;;;;;;;2.93;2.33;;;21.70;68.70;;;;;;5050910;28;20474;-50
2023/09/05 10:20:02;;;;;;;2.03;1.83;;;21.70;68.60;;;;;;5088066;28;20436;-49
2023/09/05 10:22:34;;;;;;;2.80;2.03;;;21.70;68.70;;;;;;5078121;28;20447;-50
2023/09/05 10:25:07;;;;;;;2.13;1.93;;;21.70;68.70;;;;;;5085550;28;20440;-49
2023/09/05 10:27:39;;;;;;;3.07;2.07;;;21.70;68.80;;;;;;5093919;28;20530;-49
2023/09/05 10:30:12;;;;;;;2.20;1.77;;;21.70;68.80;;;;;;5086828;28;20460;-50
2023/09/05 10:32:44;;;;;;;2.77;2.50;;;21.70;68.70;;;;;;5091757;28;20855;-49
2023/09/05 10:35:18;;;;;;;3.03;1.87;;;21.70;68.80;;;;;;5076043;28;20421;-50
2023/09/05 10:37:52;;;;;;;1.60;1.50;;;21.70;68.80;;;;;;5071352;28;20849;-49
2023/09/05 10:40:34;;;;;;;3.37;2.13;;;21.70;68.80;;;;;;5057706;28;20478;-49
2023/09/05 10:43:05;;;;;;;2.63;2.27;;;21.70;68.80;;;;;;5101819;28;20471;-49
2023/09/05 10:45:35;;;;;;;2.63;1.90;;;21.70;68.80;;;;;;5078160;28;20511;-50
2023/09/05 10:48:08;;;;;;;3.80;2.00;;;21.70;68.80;;;;;;5070331;28;20641;-49
2023/09/05 10:51:11;;;;;;;2.80;1.70;;;21.70;68.90;;;;;;5074418;28;20523;-49
2023/09/05 10:53:42;;;;;;;2.27;1.80;;;21.70;68.90;;;;;;5069483;28;20477;-49
2023/09/05 10:56:37;;;;;;;2.77;1.60;;;21.70;68.90;;;;;;5089650;28;20524;-50
2023/09/05 10:59:12;;;;;;;3.50;2.40;;;21.80;68.90;;;;;;5085962;28;20461;-50
2023/09/05 11:02:00;;;;;;;3.27;2.20;;;21.80;69.00;;;;;;5097633;28;20888;-49
2023/09/05 11:04:31;;;;;;;2.20;1.80;;;21.80;69.00;;;;;;5084054;28;20437;-49
2023/09/05 11:07:09;;;;;;;2.73;1.87;;;21.80;68.80;;;;;;5066171;28;21028;-49
2023/09/05 11:09:48;;;;;;;2.30;2.10;;;21.80;68.80;;;;;;5072045;28;20449;-49
2023/09/05 11:12:19;;;;;;;2.70;1.90;;;21.80;68.80;;;;;;5075167;28;20448;-49
2023/09/05 11:14:54;;;;;;;2.43;1.80;;;21.80;68.70;;;;;;5080805;28;20440;-49
2023/09/05 11:17:24;;;;;;;3.73;2.57;;;21.80;68.90;;;;;;5093380;28;21153;-52
2023/09/05 11:19:53;;;;;;;2.40;1.80;;;21.80;68.90;;;;;;5099882;28;20429;-49
2023/09/05 11:22:25;;;;;;;2.10;1.87;;;21.80;69.00;;;;;;5097488;28;21002;-49
2023/09/05 11:24:58;;;;;;;2.80;1.90;;;21.80;69.00;;;;;;5100325;28;20453;-50
2023/09/05 11:27:31;;;;;;;2.07;1.60;;;21.80;69.00;;;;;;5089113;28;20559;-49
2023/09/05 11:30:06;;;;;;;2.50;1.60;;;21.80;69.10;;;;;;5061884;28;20444;-49
2023/09/05 11:32:39;;;;;;;2.17;1.93;;;21.80;69.00;;;;;;5067232;28;20441;-50
2023/09/05 11:35:10;;;;;;;3.20;1.80;;;21.80;69.10;;;;;;5074053;28;20535;-49
2023/09/05 11:37:39;;;;;;;3.23;1.67;;;21.80;69.10;;;;;;5076184;28;20461;-50
2023/09/05 11:40:14;;;;;;;1.73;1.60;;;21.80;69.20;;;;;;5101181;28;20440;-49
2023/09/05 11:42:44;;;;;;;2.10;1.90;;;21.80;69.30;;;;;;5068872;28;20946;-49
2023/09/05 11:45:20;;;;;;;2.63;2.10;;;21.90;69.30;;;;;;5087449;28;20469;-49
2023/09/05 11:47:52;;;;;;;2.30;2.10;;;21.90;69.30;;;;;;5095306;28;20511;-49
2023/09/05 11:50:23;;;;;;;3.10;2.30;;;21.90;69.20;;;;;;5083100;28;20472;-50
2023/09/05 11:52:53;;;;;;;2.37;1.87;;;21.90;69.20;;;;;;5072574;28;20520;-49
2023/09/05 11:55:23;;;;;;;2.40;1.87;;;21.90;69.30;;;;;;5075560;28;20986;-50
2023/09/05 11:57:53;;;;;;;2.10;1.80;;;21.90;69.30;;;;;;5085057;28;20892;-49
2023/09/05 12:00:25;;;;;;;2.90;1.80;;;21.90;69.30;;;;;;5094119;28;20539;-48
2023/09/05 12:02:55;;;;;;;4.00;2.00;;;21.90;69.30;;;;;;5090019;28;20526;-50
2023/09/05 12:05:25;;;;;;;2.00;1.70;;;21.90;69.30;;;;;;5085585;28;20438;-51
2023/09/05 12:07:57;;;;;;;2.93;2.20;;;21.90;69.30;;;;;;5089319;28;20487;-49
2023/09/05 12:10:38;;;;;;;2.40;1.90;;;21.90;69.40;;;;;;5072719;28;20434;-50
2023/09/05 12:13:08;;;;;;;1.93;1.67;;;21.90;69.30;;;;;;5080616;28;20493;-50
2023/09/05 12:15:39;;;;;;;1.97;1.67;;;22.00;69.70;;;;;;5075064;28;20452;-49
2023/09/05 12:18:08;;;;;;;2.40;1.90;;;22.00;69.50;;;;;;5070550;28;20472;-51
2023/09/05 12:20:38;;;;;;;2.10;1.90;;;22.00;69.50;;;;;;5074347;28;20453;-51
2023/09/05 12:23:07;;;;;;;2.60;1.93;;;22.00;69.50;;;;;;5073296;28;20535;-49
2023/09/05 12:25:47;;;;;;;2.50;2.30;;;22.00;69.50;;;;;;5070497;28;20525;-50
2023/09/05 12:28:28;;;;;;;1.97;1.70;;;22.00;69.60;;;;;;5085496;28;20469;-50
2023/09/05 12:31:07;;;;;;;1.70;1.50;;;22.00;69.60;;;;;;5098674;28;20457;-50
2023/09/05 12:33:36;;;;;;;2.60;1.87;;;22.00;69.60;;;;;;5095111;28;20483;-51
2023/09/05 12:36:05;;;;;;;2.37;2.03;;;22.00;69.70;;;;;;5077466;28;20465;-49
2023/09/05 12:38:34;;;;;;;2.33;2.00;;;22.00;69.60;;;;;;5100656;28;21000;-50
2023/09/05 12:41:03;;;;;;;2.17;1.70;;;22.00;69.70;;;;;;5079599;28;20499;-50
2023/09/05 12:43:31;;;;;;;2.47;2.10;;;22.10;69.90;;;;;;5075071;28;20444;-49
2023/09/05 12:46:03;;;;;;;2.37;1.80;;;22.20;69.80;;;;;;5064434;28;20949;-49
2023/09/05 12:48:34;;;;;;;2.63;1.70;;;22.30;69.20;;;;;;5066612;28;20473;-50
2023/09/05 12:51:04;;;;;;;4.00;1.90;;;22.30;69.20;;;;;;5083615;28;20459;-50
2023/09/05 12:53:34;;;;;;;2.30;1.80;;;22.30;69.30;;;;;;5075862;28;20496;-49
2023/09/05 12:56:08;;;;;;;2.93;1.90;;;22.30;69.40;;;;;;5087938;28;20442;-51
2023/09/05 12:58:38;;;;;;;2.63;1.90;;;22.20;69.30;;;;;;5088969;28;20473;-52
2023/09/05 13:01:10;;;;;;;2.53;2.00;;;22.20;69.40;;;;;;5079246;28;20432;-50
2023/09/05 13:03:41;;;;;;;1.90;1.60;;;22.20;69.50;;;;;;5088433;28;20495;-52
2023/09/05 13:06:10;;;;;;;1.93;1.73;;;22.20;69.50;;;;;;5082455;28;20441;-50